createdAt,value
2019-02-15T00:01:19.746Z,100503.08
2019-02-15T00:03:48.887Z,100502.16
2019-02-15T00:06:17.974Z,100506.09
2019-02-15T00:08:47.096Z,100508.64
2019-02-15T00:11:16.229Z,100509.44
2019-02-15T00:13:45.365Z,100504.48
2019-02-15T00:16:14.486Z,100510.19
2019-02-15T00:18:55.931Z,100499.63
2019-02-15T00:21:27.759Z,100504.47
2019-02-15T00:23:56.865Z,100498.48
2019-02-15T00:26:26.002Z,100500.84
2019-02-15T00:28:55.123Z,100503.64
2019-02-15T00:31:24.263Z,100500.84
2019-02-15T00:33:53.406Z,100501.98
2019-02-15T00:36:22.532Z,100505.64
2019-02-15T00:38:51.622Z,100513.20
2019-02-15T00:41:20.693Z,100518.02
2019-02-15T00:43:49.836Z,100520.39
2019-02-15T00:46:56.079Z,100525.67
2019-02-15T00:49:40.463Z,100521.67
2019-02-15T00:52:31.608Z,100516.68
2019-02-15T00:55:21.215Z,100524.84
2019-02-15T00:58:18.534Z,100522.66
2019-02-15T01:00:54.297Z,100521.64
2019-02-15T01:03:43.167Z,100517.19
2019-02-15T01:06:30.172Z,100518.75
2019-02-15T01:09:17.202Z,100526.25
2019-02-15T01:11:51.010Z,100516.75
2019-02-15T01:14:20.470Z,100512.81
2019-02-15T01:16:49.697Z,100514.73
2019-02-15T01:19:18.795Z,100515.21
2019-02-15T01:21:47.910Z,100514.59
2019-02-15T01:24:16.993Z,100512.63
2019-02-15T01:26:48.439Z,100507.89
2019-02-15T01:29:48.701Z,100514.59
2019-02-15T01:32:43.097Z,100515.05
2019-02-15T01:35:29.846Z,100516.75
2019-02-15T01:38:30.192Z,100511.44
2019-02-15T01:41:04.853Z,100510.25
2019-02-15T01:43:51.773Z,100511.44
2019-02-15T01:46:24.653Z,100511.05
2019-02-15T01:48:53.815Z,100512.70
2019-02-15T01:51:22.905Z,100512.98
2019-02-15T01:53:51.951Z,100509.98
2019-02-15T01:56:21.131Z,100513.55
2019-02-15T01:58:50.255Z,100515.94
2019-02-15T02:01:22.991Z,100512.80
2019-02-15T02:03:52.034Z,100504.65
2019-02-15T02:06:21.141Z,100502.23
2019-02-15T02:08:50.282Z,100499.80
2019-02-15T02:11:19.424Z,100506.44
2019-02-15T02:13:49.864Z,100503.69
2019-02-15T02:16:19.522Z,100501.74
2019-02-15T02:18:48.666Z,100496.90
2019-02-15T02:21:17.840Z,100501.34
2019-02-15T02:23:46.954Z,100499.58
2019-02-15T02:26:16.051Z,100499.63
2019-02-15T02:28:45.317Z,100496.78
2019-02-15T02:31:14.448Z,100499.97
2019-02-15T02:33:43.500Z,100491.17
2019-02-15T02:36:12.583Z,100493.95
2019-02-15T02:38:41.720Z,100490.02
2019-02-15T02:41:10.812Z,100495.27
2019-02-15T02:43:39.941Z,100487.12
2019-02-15T02:46:09.068Z,100486.47
2019-02-15T02:48:38.388Z,100491.74
2019-02-15T02:51:07.490Z,100486.02
2019-02-15T02:53:36.623Z,100489.92
2019-02-15T02:56:05.707Z,100487.06
2019-02-15T02:58:34.745Z,100491.35
2019-02-15T03:01:04.319Z,100485.38
2019-02-15T03:03:33.460Z,100486.98
2019-02-15T03:06:02.593Z,100494.22
2019-02-15T03:08:31.744Z,100490.08
2019-02-15T03:11:00.837Z,100484.86
2019-02-15T03:13:30.081Z,100480.06
2019-02-15T03:15:59.087Z,100478.06
2019-02-15T03:18:28.198Z,100481.08
2019-02-15T03:20:57.319Z,100478.31
2019-02-15T03:23:26.445Z,100472.97
2019-02-15T03:25:55.589Z,100470.70
2019-02-15T03:28:24.614Z,100468.30
2019-02-15T03:30:53.722Z,100467.81
2019-02-15T03:33:22.869Z,100467.48
2019-02-15T03:36:03.458Z,100468.49
2019-02-15T03:38:37.731Z,100467.40
2019-02-15T03:41:18.084Z,100465.20
2019-02-15T03:43:47.233Z,100469.16
2019-02-15T03:46:16.306Z,100465.62
2019-02-15T03:48:45.466Z,100473.27
2019-02-15T03:51:14.561Z,100463.02
2019-02-15T03:53:44.008Z,100466.84
2019-02-15T03:56:13.233Z,100460.77
2019-02-15T03:58:42.340Z,100466.70
2019-02-15T04:01:11.851Z,100461.83
2019-02-15T04:03:40.992Z,100476.19
2019-02-15T04:06:10.090Z,100473.98
2019-02-15T04:08:39.204Z,100468.66
2019-02-15T04:11:08.322Z,100465.86
2019-02-15T04:13:37.465Z,100469.02
2019-02-15T04:16:06.547Z,100469.27
2019-02-15T04:18:35.664Z,100464.09
2019-02-15T04:21:04.751Z,100466.30
2019-02-15T04:23:33.855Z,100471.59
2019-02-15T04:26:03.310Z,100465.09
2019-02-15T04:28:32.406Z,100465.88
2019-02-15T04:31:01.543Z,100466.59
2019-02-15T04:33:30.669Z,100466.17
2019-02-15T04:35:59.776Z,100466.20
2019-02-15T04:38:28.820Z,100464.84
2019-02-15T04:40:58.291Z,100465.03
2019-02-15T04:43:27.390Z,100461.00
2019-02-15T04:45:56.554Z,100464.50
2019-02-15T04:48:25.630Z,100468.58
2019-02-15T04:50:55.185Z,100457.95
2019-02-15T04:53:24.140Z,100462.00
2019-02-15T04:55:53.291Z,100460.58
2019-02-15T04:58:22.384Z,100457.48
2019-02-15T05:00:51.458Z,100451.85
2019-02-15T05:03:20.469Z,100459.27
2019-02-15T05:05:49.654Z,100456.70
2019-02-15T05:08:18.679Z,100457.26
2019-02-15T05:10:47.882Z,100455.92
2019-02-15T05:13:17.008Z,100454.97
2019-02-15T05:15:46.141Z,100453.10
2019-02-15T05:18:15.211Z,100454.49
2019-02-15T05:20:44.277Z,100452.55
2019-02-15T05:23:13.313Z,100448.50
2019-02-15T05:25:42.445Z,100445.44
2019-02-15T05:28:11.666Z,100450.63
2019-02-15T05:30:40.917Z,100447.14
2019-02-15T05:33:09.993Z,100452.86
2019-02-15T05:35:39.512Z,100452.05
2019-02-15T05:38:08.605Z,100446.58
2019-02-15T05:40:37.730Z,100448.11
2019-02-15T05:43:07.567Z,100447.41
2019-02-15T05:45:36.717Z,100448.73
2019-02-15T05:48:05.814Z,100452.91
2019-02-15T05:50:34.852Z,100455.86
2019-02-15T05:53:03.991Z,100453.30
2019-02-15T05:55:33.137Z,100451.69
2019-02-15T05:58:02.329Z,100446.39
2019-02-15T06:00:37.032Z,100455.36
2019-02-15T06:03:02.580Z,100451.79
2019-02-15T06:05:31.685Z,100445.61
2019-02-15T06:08:00.791Z,100450.30
2019-02-15T06:10:30.016Z,100452.92
2019-02-15T06:12:59.061Z,100445.69
2019-02-15T06:15:28.191Z,100450.95
2019-02-15T06:17:57.242Z,100447.89
2019-02-15T06:20:26.295Z,100448.62
2019-02-15T06:22:55.459Z,100450.29
2019-02-15T06:25:24.638Z,100450.77
2019-02-15T06:27:53.776Z,100447.05
2019-02-15T06:30:23.249Z,100454.63
2019-02-15T06:32:57.940Z,100447.66
2019-02-15T06:36:05.354Z,100455.64
2019-02-15T06:38:34.714Z,100457.45
2019-02-15T06:41:00.867Z,100464.52
2019-02-15T06:43:29.878Z,100465.44
2019-02-15T06:45:58.998Z,100456.59
2019-02-15T06:48:28.150Z,100465.28
2019-02-15T06:50:57.277Z,100463.14
2019-02-15T06:53:26.297Z,100461.43
2019-02-15T06:55:55.482Z,100461.35
2019-02-15T06:58:24.593Z,100470.52
2019-02-15T07:01:12.699Z,100470.44
2019-02-15T07:03:51.786Z,100474.40
2019-02-15T07:06:20.982Z,100474.90
2019-02-15T07:08:49.997Z,100475.55
2019-02-15T07:11:19.142Z,100474.66
2019-02-15T07:13:48.247Z,100477.19
2019-02-15T07:16:18.585Z,100478.92
2019-02-15T07:18:48.188Z,100487.30
2019-02-15T07:21:17.232Z,100490.84
2019-02-15T07:23:46.403Z,100488.59
2019-02-15T07:26:15.735Z,100489.80
2019-02-15T07:28:44.953Z,100486.53
2019-02-15T07:31:14.088Z,100491.57
2019-02-15T07:33:43.617Z,100487.42
2019-02-15T07:36:12.686Z,100483.94
2019-02-15T07:38:41.788Z,100482.98
2019-02-15T07:41:10.959Z,100483.91
2019-02-15T07:43:40.134Z,100485.22
2019-02-15T07:46:09.359Z,100482.98
2019-02-15T07:48:38.520Z,100482.19
2019-02-15T07:51:09.930Z,100477.58
2019-02-15T07:53:38.551Z,100478.25
2019-02-15T07:56:07.933Z,100476.31
2019-02-15T07:58:36.967Z,100475.20
2019-02-15T08:01:06.116Z,100477.78
2019-02-15T08:03:35.228Z,100478.64
2019-02-15T08:06:04.446Z,100468.78
2019-02-15T08:08:33.516Z,100471.70
2019-02-15T08:11:02.654Z,100468.59
2019-02-15T08:13:31.800Z,100461.88
2019-02-15T08:16:02.767Z,100463.78
2019-02-15T08:18:33.571Z,100465.59
2019-02-15T08:21:02.929Z,100463.91
2019-02-15T08:23:32.114Z,100468.02
2019-02-15T08:26:01.253Z,100470.64
2019-02-15T08:28:30.474Z,100467.67
2019-02-15T08:30:59.601Z,100472.62
2019-02-15T08:33:29.316Z,100473.00
2019-02-15T08:35:58.650Z,100466.42
2019-02-15T08:38:27.929Z,100466.14
2019-02-15T08:40:56.994Z,100466.88
2019-02-15T08:43:26.056Z,100467.20
2019-02-15T08:46:01.528Z,100465.19
2019-02-15T08:48:25.928Z,100464.46
2019-02-15T08:50:55.030Z,100461.98
2019-02-15T08:53:24.109Z,100459.47
2019-02-15T08:55:53.285Z,100454.80
2019-02-15T08:58:22.400Z,100462.52
2019-02-15T09:00:51.611Z,100462.02
2019-02-15T09:03:22.110Z,100461.39
2019-02-15T09:05:51.295Z,100460.41
2019-02-15T09:08:20.692Z,100458.95
2019-02-15T09:10:49.936Z,100464.21
2019-02-15T09:13:18.991Z,100458.35
2019-02-15T09:15:48.079Z,100457.25
2019-02-15T09:18:17.348Z,100456.55
2019-02-15T09:20:46.448Z,100454.20
2019-02-15T09:23:15.570Z,100448.60
2019-02-15T09:25:44.672Z,100453.83
2019-02-15T09:28:39.686Z,100455.69
2019-02-15T09:31:08.785Z,100445.11
2019-02-15T09:33:37.936Z,100452.41
2019-02-15T09:36:07.058Z,100456.45
2019-02-15T09:38:36.173Z,100453.24
2019-02-15T09:41:05.285Z,100448.08
2019-02-15T09:43:34.504Z,100453.22
2019-02-15T09:46:03.603Z,100451.70
2019-02-15T09:48:32.814Z,100455.98
2019-02-15T09:51:02.273Z,100450.77
2019-02-15T09:53:31.245Z,100446.67
2019-02-15T09:56:00.270Z,100447.64
2019-02-15T09:58:29.330Z,100447.50
2019-02-15T10:00:58.502Z,100446.44
2019-02-15T10:10:55.671Z,100451.99
2019-02-15T10:13:24.755Z,100452.88
2019-02-15T10:15:53.781Z,100444.14
2019-02-15T10:18:22.936Z,100442.17
2019-02-15T10:20:52.103Z,100439.75
2019-02-15T10:23:21.121Z,100438.98
2019-02-15T10:25:50.297Z,100439.95
2019-02-15T10:28:19.344Z,100440.12
2019-02-15T10:30:48.457Z,100441.77
2019-02-15T10:33:17.461Z,100440.78
2019-02-15T10:35:46.573Z,100439.62
2019-02-15T10:38:15.681Z,100435.18
2019-02-15T10:40:44.811Z,100434.32
2019-02-15T10:43:13.912Z,100428.04
2019-02-15T10:45:43.042Z,100424.22
2019-02-15T10:48:12.147Z,100420.73
2019-02-15T10:50:41.272Z,100418.72
2019-02-15T10:53:11.089Z,100413.32
2019-02-15T10:55:40.305Z,100417.02
2019-02-15T10:58:09.393Z,100414.17
2019-02-15T11:00:38.746Z,100403.84
2019-02-15T11:03:07.877Z,100406.77
2019-02-15T11:05:37.055Z,100398.23
2019-02-15T11:08:06.487Z,100397.16
2019-02-15T11:10:35.708Z,100393.00
2019-02-15T11:13:04.785Z,100391.31
2019-02-15T11:15:33.841Z,100382.98
2019-02-15T11:18:02.918Z,100379.09
2019-02-15T11:20:31.975Z,100381.39
2019-02-15T11:23:01.115Z,100371.09
2019-02-15T11:25:30.233Z,100372.39
2019-02-15T11:27:59.332Z,100368.28
2019-02-15T11:30:28.473Z,100366.06
2019-02-15T11:32:57.722Z,100354.01
2019-02-15T11:35:26.808Z,100358.74
2019-02-15T11:37:56.358Z,100355.55
2019-02-15T11:40:25.441Z,100349.74
2019-02-15T11:42:55.101Z,100350.94
2019-02-15T11:45:24.292Z,100345.37
2019-02-15T11:47:53.321Z,100341.98
2019-02-15T11:50:22.442Z,100341.43
2019-02-15T11:52:51.689Z,100338.47
2019-02-15T11:55:20.851Z,100329.65
2019-02-15T11:57:49.990Z,100329.65
2019-02-15T12:00:23.594Z,100333.62
2019-02-15T12:02:52.907Z,100332.09
2019-02-15T12:05:22.020Z,100324.11
2019-02-15T12:07:51.601Z,100321.50
2019-02-15T12:10:20.797Z,100321.50
2019-02-15T12:12:50.594Z,100320.64
2019-02-15T12:15:19.750Z,100323.97
2019-02-15T12:17:48.923Z,100314.53
2019-02-15T12:20:18.382Z,100314.08
2019-02-15T12:22:47.494Z,100314.08
2019-02-15T12:25:16.642Z,100314.05
2019-02-15T12:27:45.864Z,100315.83
2019-02-15T12:30:14.945Z,100315.59
2019-02-15T12:32:44.096Z,100315.55
2019-02-15T12:35:13.103Z,100309.45
2019-02-15T12:37:42.277Z,100301.59
2019-02-15T12:40:11.611Z,100306.35
2019-02-15T12:42:40.836Z,100300.98
2019-02-15T12:45:10.487Z,100305.58
2019-02-15T12:47:39.545Z,100304.35
2019-02-15T12:50:11.059Z,100293.64
2019-02-15T12:52:40.278Z,100293.22
2019-02-15T12:55:09.374Z,100284.91
2019-02-15T12:57:38.428Z,100285.22
2019-02-15T13:00:10.097Z,100287.25
2019-02-15T13:02:39.222Z,100280.20
2019-02-15T13:05:09.343Z,100282.13
2019-02-15T13:07:38.411Z,100275.50
2019-02-15T13:10:09.006Z,100274.78
2019-02-15T13:12:38.064Z,100268.77
2019-02-15T13:15:07.330Z,100262.20
2019-02-15T13:17:36.458Z,100263.40
2019-02-15T13:20:05.627Z,100261.11
2019-02-15T13:22:34.742Z,100253.79
2019-02-15T13:25:04.355Z,100251.05
2019-02-15T13:27:33.479Z,100251.70
2019-02-15T13:30:02.500Z,100244.43
2019-02-15T13:32:32.758Z,100244.17
2019-02-15T13:35:01.919Z,100241.53
2019-02-15T13:37:31.067Z,100233.51
2019-02-15T13:40:00.149Z,100228.13
2019-02-15T13:42:29.621Z,100225.45
2019-02-15T13:44:58.613Z,100221.07
2019-02-15T13:47:34.251Z,100213.31
2019-02-15T13:49:58.813Z,100216.72
2019-02-15T13:52:27.904Z,100204.69
2019-02-15T13:54:57.307Z,100204.91
2019-02-15T13:57:26.539Z,100205.89
2019-02-15T13:59:55.814Z,100203.73
2019-02-15T14:02:24.897Z,100201.80
2019-02-15T14:04:53.937Z,100201.80
2019-02-15T14:07:23.139Z,100201.34
2019-02-15T14:09:52.529Z,100199.74
2019-02-15T14:12:21.627Z,100196.42
2019-02-15T14:14:50.811Z,100201.34
2019-02-15T14:17:19.847Z,100199.81
2019-02-15T14:19:49.006Z,100199.35
2019-02-15T14:22:18.092Z,100194.97
2019-02-15T14:24:47.191Z,100200.00
2019-02-15T14:27:16.282Z,100196.36
2019-02-15T14:29:45.455Z,100193.91
2019-02-15T14:32:14.553Z,100188.52
2019-02-15T14:34:43.695Z,100185.98
2019-02-15T14:37:12.771Z,100188.17
2019-02-15T14:39:42.346Z,100181.94
2019-02-15T14:42:11.400Z,100185.29
2019-02-15T14:44:40.547Z,100180.03
2019-02-15T14:47:09.631Z,100179.17
2019-02-15T14:49:38.862Z,100179.77
2019-02-15T14:52:07.968Z,100175.51
2019-02-15T14:54:37.123Z,100176.05
2019-02-15T14:57:06.857Z,100170.90
2019-02-15T14:59:36.020Z,100172.39
2019-02-15T15:02:05.183Z,100169.17
2019-02-15T15:04:34.433Z,100165.43
2019-02-15T15:07:03.497Z,100168.70
2019-02-15T15:09:32.592Z,100166.36
2019-02-15T15:12:01.732Z,100163.94
2019-02-15T15:14:30.823Z,100157.11
2019-02-15T15:16:59.975Z,100155.82
2019-02-15T15:19:29.168Z,100160.47
2019-02-15T15:21:58.187Z,100154.14
2019-02-15T15:24:28.515Z,100155.65
2019-02-15T15:26:58.116Z,100144.22
2019-02-15T15:29:27.262Z,100142.84
2019-02-15T15:31:56.274Z,100142.84
2019-02-15T15:34:25.340Z,100144.97
2019-02-15T15:36:54.463Z,100150.88
2019-02-15T15:39:23.610Z,100149.21
2019-02-15T15:41:52.842Z,100138.54
2019-02-15T15:44:21.992Z,100137.38
2019-02-15T15:46:51.075Z,100139.92
2019-02-15T15:49:20.076Z,100147.41
2019-02-15T15:51:49.364Z,100150.83
2019-02-15T15:54:18.639Z,100139.87
2019-02-15T15:56:47.734Z,100142.29
2019-02-15T15:59:16.783Z,100144.60
2019-02-15T16:01:45.909Z,100141.45
2019-02-15T16:04:15.105Z,100135.89
2019-02-15T16:06:44.265Z,100138.56
2019-02-15T16:09:13.696Z,100134.09
2019-02-15T16:11:42.794Z,100130.78
2019-02-15T16:14:11.935Z,100134.00
2019-02-15T16:16:41.082Z,100124.98
2019-02-15T16:19:10.206Z,100123.80
2019-02-15T16:21:39.180Z,100128.91
2019-02-15T16:24:12.625Z,100125.49
2019-02-15T16:26:39.105Z,100130.28
2019-02-15T16:29:08.175Z,100132.89
2019-02-15T16:31:37.296Z,100125.48
2019-02-15T16:34:06.415Z,100127.28
2019-02-15T16:36:35.503Z,100127.50
2019-02-15T16:39:05.730Z,100121.35
2019-02-15T16:41:34.683Z,100124.47
2019-02-15T16:44:03.873Z,100123.59
2019-02-15T16:46:32.994Z,100129.30
2019-02-15T16:49:02.112Z,100127.58
2019-02-15T16:51:31.283Z,100132.16
2019-02-15T16:54:00.389Z,100127.84
2019-02-15T16:56:29.870Z,100125.08
2019-02-15T16:58:58.960Z,100126.62
2019-02-15T17:01:28.051Z,100125.89
2019-02-15T17:03:57.109Z,100125.02
2019-02-15T17:06:26.248Z,100123.65
2019-02-15T17:08:55.306Z,100132.05
2019-02-15T17:11:24.514Z,100123.33
2019-02-15T17:13:53.988Z,100122.13
2019-02-15T17:16:23.220Z,100118.45
2019-02-15T17:18:52.451Z,100114.99
2019-02-15T17:21:21.530Z,100122.31
2019-02-15T17:23:50.678Z,100119.28
2019-02-15T17:26:19.865Z,100125.19
2019-02-15T17:28:49.071Z,100118.11
2019-02-15T17:43:26.482Z,100108.06
2019-02-15T17:45:55.620Z,100106.64
2019-02-15T17:48:25.224Z,100112.28
2019-02-15T17:50:54.578Z,100116.38
2019-02-15T17:53:24.601Z,100114.52
2019-02-15T17:55:54.098Z,100113.20
2019-02-15T17:58:23.391Z,100107.23
2019-02-15T18:00:52.558Z,100112.19
2019-02-15T18:03:21.785Z,100111.20
2019-02-15T18:05:51.049Z,100106.39
2019-02-15T18:08:20.469Z,100107.09
2019-02-15T18:10:49.736Z,100106.30
2019-02-15T18:13:19.132Z,100113.96
2019-02-15T18:15:48.440Z,100113.14
2019-02-15T18:18:17.882Z,100118.75
2019-02-15T18:20:47.370Z,100116.05
2019-02-15T18:23:16.496Z,100115.92
2019-02-15T18:25:45.753Z,100107.68
2019-02-15T18:28:15.089Z,100114.87
2019-02-15T18:30:44.236Z,100106.78
2019-02-15T18:33:13.404Z,100109.48
2019-02-15T18:35:42.592Z,100106.19
2019-02-15T18:38:11.785Z,100107.48
2019-02-15T18:40:40.955Z,100102.68
2019-02-15T18:43:10.285Z,100105.50
2019-02-15T18:45:39.503Z,100099.00
2019-02-15T18:48:08.699Z,100099.59
2019-02-15T18:50:37.850Z,100094.37
2019-02-15T18:53:07.021Z,100097.22
2019-02-15T18:55:36.376Z,100089.56
2019-02-15T18:58:05.560Z,100089.41
2019-02-15T19:00:34.779Z,100089.16
2019-02-15T19:03:04.722Z,100082.36
2019-02-15T19:05:34.030Z,100091.34
2019-02-15T19:08:03.294Z,100083.03
2019-02-15T19:10:32.638Z,100079.48
2019-02-15T19:13:01.950Z,100084.70
2019-02-15T19:15:31.144Z,100074.73
2019-02-15T19:18:00.494Z,100080.66
2019-02-15T19:20:29.694Z,100074.91
2019-02-15T19:22:58.869Z,100071.94
2019-02-15T19:25:28.054Z,100072.91
2019-02-15T19:27:57.648Z,100065.97
2019-02-15T19:30:27.771Z,100066.72
2019-02-15T19:32:57.006Z,100066.06
2019-02-15T19:35:26.174Z,100070.48
2019-02-15T19:37:55.485Z,100070.67
2019-02-15T19:40:24.784Z,100065.24
2019-02-15T19:42:54.564Z,100067.28
2019-02-15T19:45:23.787Z,100064.52
2019-02-15T19:47:53.015Z,100063.84
2019-02-15T19:50:22.192Z,100062.23
2019-02-15T19:52:51.483Z,100058.00
2019-02-15T19:55:20.906Z,100062.67
2019-02-15T19:57:50.216Z,100067.13
2019-02-15T20:00:19.579Z,100061.64
2019-02-15T20:02:48.823Z,100061.64
2019-02-15T20:05:17.973Z,100055.69
2019-02-15T20:07:47.227Z,100056.48
2019-02-15T20:10:18.654Z,100054.97
2019-02-15T20:12:48.087Z,100055.88
2019-02-15T20:15:17.275Z,100057.19
2019-02-15T20:17:46.516Z,100055.09
2019-02-15T20:20:15.764Z,100043.52
2019-02-15T20:22:45.011Z,100048.86
2019-02-15T20:25:14.161Z,100044.31
2019-02-15T20:27:43.415Z,100042.25
2019-02-15T20:30:14.718Z,100043.38
2019-02-15T20:32:44.194Z,100046.33
2019-02-15T20:35:13.811Z,100044.27
2019-02-15T20:37:43.118Z,100043.81
2019-02-15T20:40:12.277Z,100048.22
2019-02-15T20:42:41.468Z,100042.96
2019-02-15T20:45:13.621Z,100052.07
2019-02-15T20:47:42.815Z,100048.50
2019-02-15T20:50:12.095Z,100044.50
2019-02-15T20:52:41.456Z,100044.50
2019-02-15T20:55:11.951Z,100037.20
2019-02-15T20:57:41.268Z,100037.69
2019-02-15T21:00:13.196Z,100034.38
2019-02-15T21:02:42.429Z,100033.06
2019-02-15T21:05:11.690Z,100029.52
2019-02-15T21:07:40.879Z,100023.58
2019-02-15T21:10:11.348Z,100024.48
2019-02-15T21:12:41.331Z,100024.72
2019-02-15T21:15:10.923Z,100026.20
2019-02-15T21:17:40.074Z,100019.00
2019-02-15T21:20:10.589Z,100017.39
2019-02-15T21:22:40.713Z,100016.98
2019-02-15T21:25:14.626Z,100011.84
2019-02-15T21:27:45.343Z,100008.75
2019-02-15T21:30:14.821Z,100012.42
2019-02-15T21:32:44.149Z,100010.66
2019-02-15T21:35:13.219Z,100008.41
2019-02-15T21:37:42.439Z,100004.19
2019-02-15T21:40:15.019Z,100003.27
2019-02-15T21:42:44.438Z,100001.38
2019-02-15T21:45:14.000Z,100003.03
2019-02-15T21:47:43.097Z,99993.21
2019-02-15T21:50:17.317Z,99992.41
2019-02-15T21:52:44.466Z,99993.87
2019-02-15T21:55:13.906Z,99986.80
2019-02-15T21:57:43.144Z,99995.20
2019-02-15T22:00:15.783Z,99990.50
2019-02-15T22:02:44.950Z,99988.88
2019-02-15T22:05:14.049Z,99987.45
2019-02-15T22:07:43.191Z,99986.75
2019-02-15T22:10:12.318Z,99978.56
2019-02-15T22:12:41.565Z,99980.77
2019-02-15T22:15:11.394Z,99976.23
2019-02-15T22:17:40.562Z,99973.91
2019-02-15T22:20:11.164Z,99976.78
2019-02-15T22:22:40.412Z,99970.20
2019-02-15T22:25:09.550Z,99974.81
2019-02-15T22:27:38.685Z,99973.34
2019-02-15T22:30:09.802Z,99973.34
2019-02-15T22:32:38.965Z,99972.59
2019-02-15T22:35:08.351Z,99973.91
2019-02-15T22:37:37.518Z,99966.84
2019-02-15T22:40:44.789Z,99961.56
2019-02-15T22:43:19.852Z,99964.91
2019-02-15T22:45:48.980Z,99966.05
2019-02-15T22:48:18.406Z,99966.61
2019-02-15T22:50:47.554Z,99959.69
2019-02-15T22:53:16.726Z,99961.81
2019-02-15T22:55:45.849Z,99961.46
2019-02-15T22:58:14.978Z,99962.92
2019-02-15T23:01:17.488Z,99957.36
2019-02-15T23:03:46.627Z,99956.78
2019-02-15T23:06:15.738Z,99959.20
2019-02-15T23:08:44.878Z,99956.88
2019-02-15T23:11:14.016Z,99954.16
2019-02-15T23:13:43.177Z,99961.13
2019-02-15T23:16:12.307Z,99960.15
2019-02-15T23:18:41.501Z,99951.78
2019-02-15T23:21:10.619Z,99949.11
2019-02-15T23:23:39.770Z,99950.89
2019-02-15T23:26:08.873Z,99949.78
2019-02-15T23:28:38.072Z,99951.39
2019-02-15T23:31:07.127Z,99946.55
2019-02-15T23:33:36.269Z,99942.20
2019-02-15T23:36:05.651Z,99938.42
2019-02-15T23:38:34.832Z,99942.67
2019-02-15T23:41:03.965Z,99939.84
2019-02-15T23:43:33.160Z,99934.78
2019-02-15T23:46:02.326Z,99938.34
2019-02-15T23:48:31.508Z,99935.34
2019-02-15T23:51:00.611Z,99927.22
2019-02-15T23:53:29.747Z,99937.78
2019-02-15T23:55:58.860Z,99937.02
2019-02-15T23:58:28.015Z,99933.17
